createdAt,value
2019-01-18T00:01:34.839Z,1.87
2019-01-18T00:03:09.652Z,1.30
2019-01-18T00:04:44.440Z,0.95
2019-01-18T00:06:19.292Z,1.05
2019-01-18T00:07:54.078Z,1.05
2019-01-18T00:09:28.854Z,1.02
2019-01-18T00:11:03.713Z,0.90
2019-01-18T00:12:38.770Z,1.20
2019-01-18T00:14:14.023Z,1.00
2019-01-18T00:15:48.856Z,0.93
2019-01-18T00:17:23.643Z,0.85
2019-01-18T00:18:58.781Z,0.80
2019-01-18T00:20:34.072Z,1.00
2019-01-18T00:22:08.836Z,0.98
2019-01-18T00:23:43.841Z,0.88
2019-01-18T00:25:18.941Z,1.00
2019-01-18T00:26:53.696Z,1.00
2019-01-18T00:28:28.534Z,0.90
2019-01-18T00:30:03.426Z,1.10
2019-01-18T00:31:38.216Z,1.50
2019-01-18T00:33:13.268Z,1.10
2019-01-18T00:34:48.039Z,1.00
2019-01-18T00:36:22.804Z,1.10
2019-01-18T00:37:57.567Z,0.90
2019-01-18T00:39:32.611Z,1.75
2019-01-18T00:41:07.780Z,1.12
2019-01-18T00:42:42.693Z,1.25
2019-01-18T00:44:17.725Z,1.25
2019-01-18T00:45:52.823Z,1.30
2019-01-18T00:47:28.023Z,1.30
2019-01-18T00:49:02.784Z,1.17
2019-01-18T00:50:37.551Z,1.70
2019-01-18T00:52:12.613Z,1.17
2019-01-18T00:53:47.632Z,1.22
2019-01-18T00:55:22.691Z,1.30
2019-01-18T00:56:57.722Z,1.10
2019-01-18T00:58:32.542Z,1.10
2019-01-18T01:00:14.363Z,1.15
2019-01-18T01:01:49.345Z,1.30
2019-01-18T01:03:24.570Z,0.98
2019-01-18T01:04:59.362Z,1.30
2019-01-18T01:06:34.393Z,1.00
2019-01-18T01:08:09.302Z,1.37
2019-01-18T01:09:44.081Z,1.60
2019-01-18T01:11:18.930Z,1.35
2019-01-18T01:12:53.969Z,1.25
2019-01-18T01:14:29.047Z,1.30
2019-01-18T01:16:03.809Z,1.70
2019-01-18T01:17:38.583Z,1.70
2019-01-18T01:19:13.388Z,1.90
2019-01-18T01:20:48.252Z,1.37
2019-01-18T01:22:23.090Z,1.70
2019-01-18T01:23:57.942Z,1.50
2019-01-18T01:25:32.790Z,1.62
2019-01-18T01:27:07.555Z,1.67
2019-01-18T01:28:42.353Z,1.55
2019-01-18T01:30:23.969Z,1.70
2019-01-18T01:31:58.815Z,2.27
2019-01-18T01:33:33.602Z,1.70
2019-01-18T01:35:08.904Z,1.72
2019-01-18T01:36:43.752Z,1.60
2019-01-18T01:38:18.837Z,1.65
2019-01-18T01:39:53.927Z,1.80
2019-01-18T01:41:28.717Z,2.05
2019-01-18T01:43:03.587Z,1.57
2019-01-18T01:44:38.607Z,1.75
2019-01-18T01:46:13.628Z,2.12
2019-01-18T01:47:48.665Z,1.82
2019-01-18T01:49:23.724Z,1.90
2019-01-18T01:50:58.589Z,2.00
2019-01-18T01:52:33.421Z,1.57
2019-01-18T01:54:08.493Z,1.75
2019-01-18T01:55:43.252Z,1.90
2019-01-18T01:57:18.272Z,2.00
2019-01-18T01:58:53.113Z,2.02
2019-01-18T02:00:29.953Z,2.40
2019-01-18T02:02:05.122Z,1.92
2019-01-18T02:03:39.886Z,1.90
2019-01-18T02:05:15.182Z,1.72
2019-01-18T02:06:50.196Z,1.50
2019-01-18T02:08:24.975Z,1.75
2019-01-18T02:10:00.045Z,1.60
2019-01-18T02:11:35.211Z,2.15
2019-01-18T02:13:10.017Z,1.72
2019-01-18T02:15:04.719Z,2.12
2019-01-18T02:16:39.501Z,1.70
2019-01-18T02:18:14.257Z,1.57
2019-01-18T02:19:49.599Z,1.72
2019-01-18T02:21:24.721Z,1.67
2019-01-18T02:22:59.491Z,1.50
2019-01-18T02:24:34.400Z,1.50
2019-01-18T02:26:09.167Z,1.70
2019-01-18T02:27:45.098Z,1.45
2019-01-18T02:29:20.142Z,1.62
2019-01-18T02:30:54.929Z,2.08
2019-01-18T02:32:29.685Z,1.60
2019-01-18T02:34:06.394Z,1.65
2019-01-18T02:35:41.679Z,2.37
2019-01-18T02:37:16.707Z,1.80
2019-01-18T02:38:51.476Z,2.17
2019-01-18T02:40:26.409Z,1.65
2019-01-18T02:42:01.498Z,1.40
2019-01-18T02:43:36.515Z,1.40
2019-01-18T02:45:13.925Z,1.60
2019-01-18T02:46:49.043Z,1.70
2019-01-18T02:48:24.327Z,1.62
2019-01-18T02:49:59.592Z,1.40
2019-01-18T02:51:34.344Z,1.70
2019-01-18T02:53:09.349Z,1.82
2019-01-18T02:54:44.437Z,1.80
2019-01-18T02:56:19.524Z,1.57
2019-01-18T02:57:54.519Z,1.50
2019-01-18T02:59:29.567Z,1.57
2019-01-18T03:01:04.441Z,1.80
2019-01-18T03:02:39.643Z,1.70
2019-01-18T03:04:16.314Z,1.57
2019-01-18T03:05:51.336Z,1.87
2019-01-18T03:07:26.380Z,1.47
2019-01-18T03:09:01.192Z,1.90
2019-01-18T03:10:35.962Z,1.95
2019-01-18T03:12:10.739Z,2.87
2019-01-18T03:13:45.499Z,1.85
2019-01-18T03:15:20.381Z,1.75
2019-01-18T03:16:55.433Z,1.85
2019-01-18T03:18:30.463Z,1.60
2019-01-18T03:20:07.319Z,1.82
2019-01-18T03:21:42.326Z,1.70
2019-01-18T03:23:17.325Z,1.57
2019-01-18T03:24:52.098Z,1.72
2019-01-18T03:26:27.161Z,1.80
2019-01-18T03:28:02.182Z,1.80
2019-01-18T03:29:37.026Z,1.77
2019-01-18T03:31:12.070Z,1.75
2019-01-18T03:32:47.100Z,1.77
2019-01-18T03:34:22.132Z,1.70
2019-01-18T03:35:57.133Z,2.35
2019-01-18T03:37:32.134Z,1.82
2019-01-18T03:39:10.576Z,1.80
2019-01-18T03:40:45.390Z,2.10
2019-01-18T03:42:20.795Z,1.95
2019-01-18T03:43:56.082Z,1.98
2019-01-18T03:45:31.660Z,2.17
2019-01-18T03:47:06.478Z,2.02
2019-01-18T03:48:41.286Z,2.00
2019-01-18T03:50:22.341Z,2.00
2019-01-18T03:51:57.615Z,2.30
2019-01-18T03:53:32.483Z,1.92
2019-01-18T03:55:07.729Z,2.58
2019-01-18T03:56:42.526Z,1.98
2019-01-18T03:58:17.322Z,2.10
2019-01-18T03:59:52.373Z,2.15
2019-01-18T04:01:27.270Z,1.82
2019-01-18T04:03:02.123Z,1.92
2019-01-18T04:04:37.173Z,2.08
2019-01-18T04:06:12.075Z,1.70
2019-01-18T04:07:47.060Z,1.98
2019-01-18T04:09:22.091Z,1.70
2019-01-18T04:10:56.869Z,2.02
2019-01-18T04:12:31.662Z,2.90
2019-01-18T04:14:06.659Z,2.60
2019-01-18T04:15:41.697Z,2.12
2019-01-18T04:17:16.500Z,2.40
2019-01-18T04:18:51.277Z,1.65
2019-01-18T04:20:26.319Z,2.25
2019-01-18T04:22:01.061Z,2.40
2019-01-18T04:23:35.840Z,2.27
2019-01-18T04:25:14.586Z,1.90
2019-01-18T04:26:49.698Z,2.20
2019-01-18T04:28:24.717Z,2.12
2019-01-18T04:29:59.481Z,2.58
2019-01-18T04:31:34.528Z,2.00
2019-01-18T04:33:09.312Z,2.60
2019-01-18T04:34:44.084Z,2.08
2019-01-18T04:36:19.132Z,2.25
2019-01-18T04:37:54.229Z,2.00
2019-01-18T04:39:29.004Z,2.12
2019-01-18T04:41:03.793Z,2.33
2019-01-18T04:42:38.562Z,2.17
2019-01-18T04:44:13.566Z,2.58
2019-01-18T04:45:48.346Z,2.20
2019-01-18T04:47:23.130Z,2.00
2019-01-18T04:48:57.890Z,2.35
2019-01-18T04:50:32.913Z,2.47
2019-01-18T04:52:07.712Z,2.80
2019-01-18T04:53:42.513Z,2.20
2019-01-18T04:55:17.510Z,2.55
2019-01-18T04:56:52.571Z,2.27
2019-01-18T04:58:27.649Z,2.72
2019-01-18T05:00:02.422Z,2.40
2019-01-18T05:01:37.482Z,2.85
2019-01-18T05:03:12.247Z,3.17
2019-01-18T05:04:47.038Z,2.98
2019-01-18T05:06:22.060Z,2.92
2019-01-18T05:07:56.922Z,2.92
2019-01-18T05:09:31.951Z,2.83
2019-01-18T05:11:07.004Z,2.70
2019-01-18T05:12:42.273Z,2.30
2019-01-18T05:14:17.421Z,2.87
2019-01-18T05:15:52.190Z,2.95
2019-01-18T05:17:26.976Z,2.72
2019-01-18T05:19:02.035Z,2.42
2019-01-18T05:20:37.077Z,2.67
2019-01-18T05:22:12.113Z,2.77
2019-01-18T05:23:47.368Z,2.67
2019-01-18T05:25:22.147Z,3.02
2019-01-18T05:26:56.930Z,3.08
2019-01-18T05:28:31.695Z,2.50
2019-01-18T05:30:12.303Z,2.30
2019-01-18T05:31:47.337Z,2.20
2019-01-18T05:33:22.258Z,1.80
2019-01-18T05:34:57.556Z,1.80
2019-01-18T05:36:32.594Z,1.57
2019-01-18T05:38:07.552Z,1.80
2019-01-18T05:39:42.578Z,1.60
2019-01-18T05:41:17.386Z,1.65
2019-01-18T05:42:52.225Z,1.70
2019-01-18T05:44:27.286Z,1.52
2019-01-18T05:46:02.055Z,1.60
2019-01-18T05:47:37.102Z,1.70
2019-01-18T05:49:11.962Z,1.70
2019-01-18T05:50:46.754Z,2.20
2019-01-18T05:52:21.567Z,1.40
2019-01-18T05:53:56.595Z,1.70
2019-01-18T05:55:31.371Z,1.35
2019-01-18T05:57:06.147Z,1.47
2019-01-18T05:58:40.946Z,1.57
2019-01-18T06:00:32.055Z,1.00
2019-01-18T06:02:07.576Z,1.37
2019-01-18T06:03:42.448Z,1.35
2019-01-18T06:05:18.190Z,1.20
2019-01-18T06:06:53.249Z,1.05
2019-01-18T06:08:28.314Z,1.25
2019-01-18T06:10:03.185Z,1.30
2019-01-18T06:11:38.229Z,1.30
2019-01-18T06:13:13.319Z,1.20
2019-01-18T06:14:48.114Z,1.27
2019-01-18T06:16:23.650Z,1.57
2019-01-18T06:17:58.552Z,0.93
2019-01-18T06:19:33.564Z,1.40
2019-01-18T06:21:08.401Z,1.27
2019-01-18T06:22:43.710Z,1.10
2019-01-18T06:24:18.486Z,1.40
2019-01-18T06:25:53.354Z,1.45
2019-01-18T06:27:28.154Z,1.42
2019-01-18T06:29:03.297Z,1.30
2019-01-18T06:30:38.504Z,1.70
2019-01-18T06:32:13.269Z,1.70
2019-01-18T06:33:48.337Z,1.52
2019-01-18T06:35:23.686Z,1.92
2019-01-18T06:36:58.852Z,1.67
2019-01-18T06:38:33.905Z,1.72
2019-01-18T06:40:12.469Z,1.30
2019-01-18T06:41:50.601Z,1.52
2019-01-18T06:43:25.769Z,1.80
2019-01-18T06:45:00.568Z,1.47
2019-01-18T06:46:35.359Z,1.75
2019-01-18T06:48:12.181Z,1.60
2019-01-18T06:49:46.946Z,1.80
2019-01-18T06:51:21.750Z,1.62
2019-01-18T06:52:56.512Z,1.65
2019-01-18T06:54:31.573Z,1.70
2019-01-18T06:56:06.910Z,1.95
2019-01-18T06:57:41.726Z,1.82
2019-01-18T06:59:16.765Z,1.62
2019-01-18T07:00:51.807Z,1.80
2019-01-18T07:02:26.827Z,1.98
2019-01-18T07:04:01.606Z,2.00
2019-01-18T07:05:36.974Z,2.40
2019-01-18T07:07:11.795Z,1.90
2019-01-18T07:08:46.808Z,2.92
2019-01-18T07:10:21.827Z,2.37
2019-01-18T07:11:56.626Z,2.25
2019-01-18T07:13:31.511Z,2.33
2019-01-18T07:15:08.607Z,2.65
2019-01-18T07:16:43.639Z,2.47
2019-01-18T07:18:18.418Z,2.60
2019-01-18T07:19:53.465Z,2.77
2019-01-18T07:21:28.231Z,2.70
2019-01-18T07:23:03.543Z,2.60
2019-01-18T07:24:38.320Z,2.72
2019-01-18T07:26:13.437Z,2.22
2019-01-18T07:27:48.557Z,2.65
2019-01-18T07:29:23.343Z,2.62
2019-01-18T07:30:58.967Z,2.37
2019-01-18T07:32:33.786Z,2.25
2019-01-18T07:34:08.642Z,2.22
2019-01-18T07:35:43.916Z,2.60
2019-01-18T07:37:18.718Z,2.20
2019-01-18T07:38:53.496Z,2.60
2019-01-18T07:40:28.339Z,2.50
2019-01-18T07:42:03.122Z,2.35
2019-01-18T07:43:37.932Z,2.60
2019-01-18T07:45:20.028Z,2.30
2019-01-18T07:46:54.825Z,2.90
2019-01-18T07:48:30.538Z,2.30
2019-01-18T07:50:06.217Z,2.40
2019-01-18T07:51:41.314Z,2.58
2019-01-18T07:53:16.480Z,2.60
2019-01-18T07:54:51.536Z,2.40
2019-01-18T07:56:26.560Z,2.77
2019-01-18T07:58:01.354Z,2.42
2019-01-18T07:59:36.177Z,2.50
2019-01-18T08:01:10.953Z,2.27
2019-01-18T08:02:45.933Z,2.47
2019-01-18T08:04:21.228Z,2.50
2019-01-18T08:05:56.366Z,2.47
2019-01-18T08:07:31.219Z,2.05
2019-01-18T08:09:09.184Z,2.10
2019-01-18T08:10:43.974Z,2.67
2019-01-18T08:12:18.747Z,2.45
2019-01-18T08:13:53.514Z,2.20
2019-01-18T08:15:30.034Z,2.20
2019-01-18T08:17:04.861Z,2.62
2019-01-18T08:18:39.699Z,2.40
2019-01-18T08:20:17.309Z,2.45
2019-01-18T08:21:52.326Z,2.42
2019-01-18T08:23:27.405Z,2.35
2019-01-18T08:25:02.214Z,2.67
2019-01-18T08:26:37.251Z,2.40
2019-01-18T08:28:12.019Z,2.80
2019-01-18T08:29:47.114Z,2.80
2019-01-18T08:31:21.895Z,2.67
2019-01-18T08:32:56.738Z,2.25
2019-01-18T08:34:31.514Z,3.15
2019-01-18T08:36:06.659Z,2.92
2019-01-18T08:37:41.682Z,3.00
2019-01-18T08:39:16.458Z,3.40
2019-01-18T08:40:51.543Z,3.40
2019-01-18T08:42:26.413Z,3.37
2019-01-18T08:44:01.181Z,3.15
2019-01-18T08:45:52.536Z,3.58
2019-01-18T08:47:27.587Z,3.52
2019-01-18T08:49:02.383Z,3.77
2019-01-18T08:50:37.554Z,3.87
2019-01-18T08:52:12.340Z,3.72
2019-01-18T08:53:47.153Z,3.85
2019-01-18T08:55:21.922Z,3.70
2019-01-18T08:56:56.707Z,3.80
2019-01-18T08:58:31.731Z,4.08
2019-01-18T09:00:09.424Z,4.62
2019-01-18T09:01:44.179Z,4.42
2019-01-18T09:03:18.972Z,4.22
2019-01-18T09:04:53.987Z,4.28
2019-01-18T09:06:28.813Z,3.62
2019-01-18T09:08:03.719Z,3.42
2019-01-18T09:09:38.992Z,3.50
2019-01-18T09:11:13.779Z,3.15
2019-01-18T09:12:48.793Z,3.70
2019-01-18T09:14:23.963Z,3.62
2019-01-18T09:15:58.742Z,3.02
2019-01-18T09:17:33.545Z,3.47
2019-01-18T09:19:08.386Z,3.33
2019-01-18T09:20:43.336Z,2.90
2019-01-18T09:22:18.365Z,3.40
2019-01-18T09:23:53.167Z,2.90
2019-01-18T09:25:28.016Z,3.15
2019-01-18T09:27:02.803Z,3.10
2019-01-18T09:28:38.137Z,2.92
2019-01-18T09:30:25.611Z,3.40
2019-01-18T09:32:00.841Z,2.67
2019-01-18T09:33:35.890Z,2.70
2019-01-18T09:35:12.955Z,2.92
2019-01-18T09:36:47.974Z,2.92
2019-01-18T09:38:23.051Z,2.55
2019-01-18T09:39:57.823Z,3.37
2019-01-18T09:41:32.645Z,4.65
2019-01-18T09:43:07.575Z,3.67
2019-01-18T09:44:42.364Z,2.40
2019-01-18T09:46:17.169Z,2.75
2019-01-18T09:47:52.510Z,2.58
2019-01-18T09:49:27.361Z,2.52
2019-01-18T09:51:02.250Z,2.27
2019-01-18T09:52:37.029Z,2.10
2019-01-18T09:54:12.155Z,1.87
2019-01-18T09:55:47.188Z,2.30
2019-01-18T09:57:22.087Z,2.33
2019-01-18T09:58:57.401Z,2.67
2019-01-18T10:00:35.711Z,2.75
2019-01-18T10:02:10.615Z,2.98
2019-01-18T10:03:45.426Z,2.20
2019-01-18T10:05:21.051Z,2.27
2019-01-18T10:06:56.262Z,2.17
2019-01-18T10:08:31.058Z,1.82
2019-01-18T10:10:09.220Z,1.82
2019-01-18T10:11:44.275Z,1.85
2019-01-18T10:13:19.058Z,1.80
2019-01-18T10:14:53.921Z,1.90
2019-01-18T10:16:28.709Z,1.80
2019-01-18T10:18:03.655Z,1.77
2019-01-18T10:19:38.442Z,1.60
2019-01-18T10:21:13.253Z,1.60
2019-01-18T10:22:48.827Z,1.57
2019-01-18T10:24:24.235Z,1.60
2019-01-18T10:25:59.611Z,1.52
2019-01-18T10:27:34.382Z,1.90
2019-01-18T10:29:09.158Z,1.45
2019-01-18T10:30:44.437Z,1.45
2019-01-18T10:32:19.679Z,1.37
2019-01-18T10:33:54.471Z,1.35
2019-01-18T10:35:29.469Z,2.33
2019-01-18T10:37:04.861Z,1.40
2019-01-18T10:38:39.995Z,1.95
2019-01-18T10:40:15.467Z,1.77
2019-01-18T10:41:50.250Z,2.20
2019-01-18T10:43:25.287Z,2.00
2019-01-18T10:45:00.087Z,1.92
2019-01-18T10:46:34.934Z,1.90
2019-01-18T10:48:09.760Z,1.87
2019-01-18T10:49:44.890Z,1.80
2019-01-18T10:51:20.017Z,1.70
2019-01-18T10:52:54.920Z,2.00
2019-01-18T10:54:29.702Z,1.95
2019-01-18T10:56:04.567Z,1.50
2019-01-18T10:57:39.720Z,1.60
2019-01-18T10:59:14.790Z,1.45
2019-01-18T11:00:49.553Z,1.47
2019-01-18T11:02:24.327Z,1.62
2019-01-18T11:03:59.434Z,1.70
2019-01-18T11:05:34.420Z,1.50
2019-01-18T11:07:09.579Z,1.42
2019-01-18T11:08:44.405Z,1.60
2019-01-18T11:10:19.537Z,1.60
2019-01-18T11:11:54.307Z,1.60
2019-01-18T11:13:29.062Z,2.10
2019-01-18T11:15:04.496Z,2.20
2019-01-18T11:16:39.306Z,2.30
2019-01-18T11:18:14.362Z,2.92
2019-01-18T11:19:49.155Z,2.70
2019-01-18T11:21:24.738Z,2.60
2019-01-18T11:23:00.349Z,3.12
2019-01-18T11:24:35.639Z,3.72
2019-01-18T11:26:10.482Z,3.02
2019-01-18T11:27:45.268Z,3.15
2019-01-18T11:29:20.343Z,2.72
2019-01-18T11:30:55.510Z,2.60
2019-01-18T11:32:30.287Z,3.17
2019-01-18T11:34:05.314Z,3.00
2019-01-18T11:35:40.280Z,2.92
2019-01-18T11:37:15.168Z,2.50
2019-01-18T11:38:49.959Z,2.22
2019-01-18T11:40:25.086Z,2.35
2019-01-18T11:41:59.910Z,2.50
2019-01-18T11:43:34.693Z,2.25
2019-01-18T11:45:09.976Z,2.25
2019-01-18T11:46:44.750Z,1.80
2019-01-18T11:48:19.530Z,1.75
2019-01-18T11:49:54.834Z,1.75
2019-01-18T11:51:29.626Z,1.95
2019-01-18T11:53:04.551Z,1.85
2019-01-18T11:54:39.326Z,1.70
2019-01-18T11:56:14.113Z,2.17
2019-01-18T11:57:49.126Z,2.35
2019-01-18T11:59:23.903Z,1.90
2019-01-18T12:00:58.912Z,1.87
2019-01-18T12:02:34.003Z,2.00
2019-01-18T12:04:08.798Z,2.15
2019-01-18T12:05:44.052Z,1.80
2019-01-18T12:07:19.152Z,2.02
2019-01-18T12:08:54.227Z,2.00
2019-01-18T12:10:31.940Z,1.87
2019-01-18T12:12:06.850Z,1.85
2019-01-18T12:13:41.626Z,1.80
2019-01-18T12:15:16.685Z,1.57
2019-01-18T12:16:52.243Z,2.05
2019-01-18T12:18:27.581Z,1.62
2019-01-18T12:20:02.432Z,1.40
2019-01-18T12:21:37.339Z,1.52
2019-01-18T12:23:12.463Z,1.80
2019-01-18T12:24:47.270Z,1.70
2019-01-18T12:26:22.420Z,1.80
2019-01-18T12:27:57.745Z,2.12
2019-01-18T12:29:32.539Z,2.00
2019-01-18T12:31:07.315Z,2.00
2019-01-18T12:32:42.092Z,1.80
2019-01-18T12:34:17.343Z,1.62
2019-01-18T12:35:52.194Z,1.80
2019-01-18T12:37:26.982Z,1.40
2019-01-18T12:39:01.906Z,2.00
2019-01-18T12:40:36.704Z,1.80
2019-01-18T12:42:11.703Z,2.85
2019-01-18T12:43:46.482Z,1.87
2019-01-18T12:45:23.359Z,1.60
2019-01-18T12:46:58.494Z,1.62
2019-01-18T12:48:33.552Z,1.80
2019-01-18T12:50:14.236Z,1.70
2019-01-18T12:51:49.038Z,1.92
2019-01-18T12:53:24.147Z,2.00
2019-01-18T12:54:59.267Z,1.77
2019-01-18T12:56:34.079Z,1.98
2019-01-18T12:58:09.005Z,2.12
2019-01-18T12:59:44.548Z,1.82
2019-01-18T13:01:19.402Z,1.90
2019-01-18T13:02:54.912Z,2.00
2019-01-18T13:04:29.762Z,2.00
2019-01-18T13:06:04.708Z,1.80
2019-01-18T13:07:39.574Z,1.50
2019-01-18T13:09:14.716Z,1.50
2019-01-18T13:10:49.949Z,1.57
2019-01-18T13:12:25.077Z,1.35
2019-01-18T13:14:00.216Z,1.92
2019-01-18T13:16:24.502Z,1.77
2019-01-18T13:17:59.628Z,1.92
2019-01-18T13:19:34.487Z,1.40
2019-01-18T13:21:09.270Z,1.57
2019-01-18T13:22:44.427Z,1.70
2019-01-18T13:24:19.633Z,1.85
2019-01-18T13:25:54.794Z,1.62
2019-01-18T13:27:29.895Z,1.90
2019-01-18T13:29:04.862Z,2.60
2019-01-18T13:30:39.901Z,1.72
2019-01-18T13:32:14.716Z,1.82
2019-01-18T13:33:49.666Z,1.60
2019-01-18T13:35:24.852Z,1.80
2019-01-18T13:36:59.670Z,1.62
2019-01-18T13:38:34.793Z,2.10
2019-01-18T13:40:17.522Z,2.50
2019-01-18T13:41:52.633Z,2.10
2019-01-18T13:43:27.667Z,2.87
2019-01-18T13:45:02.940Z,1.75
2019-01-18T13:46:37.805Z,2.12
2019-01-18T13:48:12.598Z,1.85
2019-01-18T13:49:47.759Z,2.10
2019-01-18T13:51:22.995Z,2.08
2019-01-18T13:52:57.790Z,1.90
2019-01-18T13:54:32.567Z,1.82
2019-01-18T13:56:07.357Z,1.95
2019-01-18T13:57:42.167Z,1.80
2019-01-18T13:59:17.313Z,1.80
2019-01-18T14:00:52.399Z,2.17
2019-01-18T14:02:27.174Z,1.82
2019-01-18T14:04:01.966Z,2.10
2019-01-18T14:05:59.028Z,2.17
2019-01-18T14:07:56.110Z,1.90
2019-01-18T14:09:31.294Z,1.98
2019-01-18T14:11:12.623Z,2.50
2019-01-18T14:12:47.388Z,3.00
2019-01-18T14:14:22.745Z,2.55
2019-01-18T14:15:57.533Z,2.35
2019-01-18T14:17:32.592Z,2.42
2019-01-18T14:19:08.035Z,2.90
2019-01-18T14:20:42.832Z,2.30
2019-01-18T14:22:17.630Z,2.40
2019-01-18T14:23:52.907Z,2.22
2019-01-18T14:25:27.713Z,2.05
2019-01-18T14:27:03.701Z,2.10
2019-01-18T14:28:38.917Z,2.50
2019-01-18T14:30:18.394Z,2.55
2019-01-18T14:31:53.174Z,1.90
2019-01-18T14:33:28.036Z,2.00
2019-01-18T14:35:03.182Z,2.33
2019-01-18T14:36:38.033Z,2.17
2019-01-18T14:38:12.891Z,2.17
2019-01-18T14:39:47.708Z,2.35
2019-01-18T14:41:23.310Z,2.58
2019-01-18T14:42:58.219Z,2.15
2019-01-18T14:44:33.598Z,2.40
2019-01-18T14:46:08.376Z,2.40
2019-01-18T14:47:43.753Z,2.12
2019-01-18T14:49:18.532Z,2.40
2019-01-18T14:50:53.432Z,2.25
2019-01-18T14:52:36.455Z,2.33
2019-01-18T14:54:14.623Z,2.05
2019-01-18T14:55:49.873Z,2.30
2019-01-18T14:57:24.743Z,1.92
2019-01-18T14:58:59.598Z,2.10
2019-01-18T15:00:36.453Z,2.10
2019-01-18T15:02:11.724Z,2.33
2019-01-18T15:03:47.003Z,2.20
2019-01-18T15:05:22.054Z,2.33
2019-01-18T15:06:56.923Z,2.08
2019-01-18T15:08:32.144Z,2.00
2019-01-18T15:10:10.287Z,2.17
2019-01-18T15:11:45.158Z,2.42
2019-01-18T15:13:20.413Z,2.33
2019-01-18T15:14:55.540Z,2.15
2019-01-18T15:16:30.513Z,2.00
2019-01-18T15:18:05.582Z,2.05
2019-01-18T15:19:40.359Z,2.20
2019-01-18T15:21:15.185Z,2.65
2019-01-18T15:22:50.118Z,1.95
2019-01-18T15:24:24.912Z,1.75
2019-01-18T15:25:59.694Z,1.92
2019-01-18T15:27:34.506Z,1.90
2019-01-18T15:29:09.974Z,2.10
2019-01-18T15:30:44.985Z,2.15
2019-01-18T15:32:20.137Z,2.30
2019-01-18T15:33:56.373Z,2.25
2019-01-18T15:35:34.653Z,1.62
2019-01-18T15:37:09.429Z,2.15
2019-01-18T15:38:44.547Z,2.22
2019-01-18T15:40:23.155Z,2.47
2019-01-18T15:41:58.397Z,2.40
2019-01-18T15:43:33.525Z,2.75
2019-01-18T15:45:10.082Z,3.00
2019-01-18T15:46:44.876Z,2.60
2019-01-18T15:48:19.989Z,2.95
2019-01-18T15:49:54.999Z,2.50
2019-01-18T15:51:29.791Z,3.50
2019-01-18T15:53:05.786Z,2.70
2019-01-18T15:54:40.901Z,2.90
2019-01-18T15:56:15.698Z,2.75
2019-01-18T15:57:50.816Z,2.98
2019-01-18T15:59:25.639Z,3.47
2019-01-18T16:01:00.774Z,3.98
2019-01-18T16:02:35.564Z,4.17
2019-01-18T16:04:10.723Z,5.97
2019-01-18T16:05:45.606Z,10.43
2019-01-18T16:07:20.784Z,12.93
2019-01-18T16:08:55.855Z,10.50
2019-01-18T16:10:30.654Z,11.53
2019-01-18T16:12:05.842Z,11.55
2019-01-18T16:13:40.669Z,10.93
2019-01-18T16:15:16.742Z,10.95
2019-01-18T16:17:02.310Z,10.38
2019-01-18T16:18:37.239Z,9.00
2019-01-18T16:20:16.292Z,9.43
2019-01-18T16:21:51.087Z,8.28
2019-01-18T16:23:25.868Z,9.08
2019-01-18T16:25:06.740Z,8.05
2019-01-18T16:26:41.870Z,8.50
2019-01-18T16:28:16.807Z,8.78
2019-01-18T16:29:51.607Z,8.23
2019-01-18T16:31:27.396Z,7.87
2019-01-18T16:33:02.346Z,7.65
2019-01-18T16:34:37.614Z,7.15
2019-01-18T16:36:12.664Z,7.55
2019-01-18T16:37:49.169Z,6.50
2019-01-18T16:39:24.275Z,5.72
2019-01-18T16:40:59.113Z,5.85
2019-01-18T16:42:33.953Z,6.47
2019-01-18T16:44:08.761Z,6.47
2019-01-18T16:45:44.138Z,5.47
2019-01-18T16:47:19.189Z,5.45
2019-01-18T16:48:54.297Z,5.42
2019-01-18T16:50:30.074Z,5.72
2019-01-18T16:52:05.017Z,5.25
2019-01-18T16:53:40.092Z,4.83
2019-01-18T16:55:15.643Z,5.08
2019-01-18T16:56:50.482Z,4.80
2019-01-18T16:58:25.264Z,5.10
2019-01-18T17:00:00.216Z,5.20
2019-01-18T17:01:35.283Z,5.42
2019-01-18T17:03:10.242Z,5.70
2019-01-18T17:04:45.642Z,5.22
2019-01-18T17:06:20.741Z,5.55
2019-01-18T17:07:55.726Z,5.33
2019-01-18T17:09:30.612Z,5.67
2019-01-18T17:11:06.318Z,6.20
2019-01-18T17:12:41.097Z,6.55
2019-01-18T17:14:15.983Z,5.20
2019-01-18T17:15:50.873Z,5.53
2019-01-18T17:17:26.204Z,5.58
2019-01-18T17:19:01.276Z,6.45
2019-01-18T17:20:40.057Z,6.28
2019-01-18T17:22:14.912Z,6.10
2019-01-18T17:23:49.762Z,6.33
2019-01-18T17:25:24.892Z,6.90
2019-01-18T17:27:00.151Z,6.58
2019-01-18T17:28:35.265Z,6.67
2019-01-18T17:30:17.187Z,6.25
2019-01-18T17:31:52.260Z,7.55
2019-01-18T17:33:28.261Z,7.30
2019-01-18T17:35:04.299Z,7.67
2019-01-18T17:37:08.465Z,7.72
2019-01-18T17:39:19.572Z,7.53
2019-01-18T17:41:28.127Z,7.30
2019-01-18T17:43:52.444Z,6.85
2019-01-18T17:46:29.857Z,6.83
2019-01-18T17:48:54.277Z,7.67
2019-01-18T17:51:01.335Z,8.33
2019-01-18T17:53:08.315Z,7.67
2019-01-18T17:55:54.835Z,6.62
2019-01-18T17:58:25.951Z,6.53
2019-01-18T18:01:02.209Z,8.20
2019-01-18T18:03:21.293Z,7.60
2019-01-18T18:05:41.754Z,7.17
2019-01-18T18:07:51.749Z,7.15
2019-01-18T18:09:45.512Z,7.30
2019-01-18T18:11:54.191Z,7.25
2019-01-18T18:14:38.969Z,7.42
2019-01-18T18:16:47.508Z,7.03
2019-01-18T18:18:53.028Z,6.65
2019-01-18T18:21:17.526Z,7.58
2019-01-18T18:23:48.710Z,9.05
2019-01-18T18:26:00.725Z,8.93
2019-01-18T18:28:34.347Z,9.53
2019-01-18T18:30:52.030Z,10.05
2019-01-18T18:33:08.947Z,11.40
2019-01-18T18:35:00.353Z,11.38
2019-01-18T18:37:34.369Z,13.43
2019-01-18T18:40:02.421Z,13.15
2019-01-18T18:42:05.814Z,12.10
2019-01-18T18:44:37.200Z,12.53
2019-01-18T18:47:00.976Z,11.55
2019-01-18T18:49:36.475Z,11.70
2019-01-18T18:52:13.953Z,12.03
2019-01-18T18:54:52.274Z,11.93
2019-01-18T18:57:30.054Z,10.90
2019-01-18T18:59:31.528Z,9.18
2019-01-18T19:02:02.016Z,10.55
2019-01-18T19:04:03.111Z,11.63
2019-01-18T19:06:52.630Z,10.08
2019-01-18T19:09:17.018Z,12.95
2019-01-18T19:11:43.091Z,9.98
2019-01-18T19:14:15.662Z,10.23
2019-01-18T19:16:41.383Z,10.43
2019-01-18T19:18:42.116Z,9.75
2019-01-18T19:21:26.963Z,9.35
2019-01-18T19:23:20.601Z,9.58
2019-01-18T19:26:07.341Z,10.60
2019-01-18T19:28:09.912Z,10.43
2019-01-18T19:30:44.918Z,11.73
2019-01-18T19:32:44.956Z,12.43
2019-01-18T19:34:56.819Z,10.85
2019-01-18T19:37:07.789Z,11.43
2019-01-18T19:39:31.176Z,12.68
2019-01-18T19:41:36.817Z,13.55
2019-01-18T19:44:09.775Z,12.68
2019-01-18T19:46:11.743Z,12.10
2019-01-18T19:48:15.546Z,11.78
2019-01-18T19:50:45.921Z,11.08
2019-01-18T19:52:40.991Z,11.15
2019-01-18T19:54:47.843Z,10.68
2019-01-18T19:57:05.366Z,10.85
2019-01-18T20:00:14.094Z,10.82
2019-01-18T20:02:39.450Z,10.25
2019-01-18T20:04:49.907Z,10.23
2019-01-18T20:07:39.771Z,10.45
2019-01-18T20:09:49.393Z,9.90
2019-01-18T20:12:07.742Z,9.35
2019-01-18T20:14:30.873Z,10.43
2019-01-18T20:16:43.370Z,9.83
2019-01-18T20:19:27.532Z,10.55
2019-01-18T20:21:54.456Z,9.90
2019-01-18T20:24:30.173Z,9.63
2019-01-18T20:26:35.927Z,10.45
2019-01-18T20:29:05.385Z,9.78
2019-01-18T20:31:16.676Z,9.20
2019-01-18T20:33:34.019Z,10.68
2019-01-18T20:36:38.229Z,10.45
2019-01-18T20:39:20.215Z,9.75
2019-01-18T20:41:47.016Z,10.85
2019-01-18T20:44:01.717Z,9.58
2019-01-18T20:46:41.434Z,10.68
2019-01-18T20:49:02.282Z,10.23
2019-01-18T20:51:41.021Z,10.35
2019-01-18T20:54:22.579Z,10.30
2019-01-18T20:56:44.600Z,10.48
2019-01-18T20:58:56.476Z,10.05
2019-01-18T21:01:16.128Z,10.70
2019-01-18T21:03:32.597Z,10.90
2019-01-18T21:06:03.107Z,10.95
2019-01-18T21:08:27.068Z,11.70
2019-01-18T21:11:00.842Z,11.03
2019-01-18T21:13:23.910Z,12.93
2019-01-18T21:15:35.431Z,10.98
2019-01-18T21:18:08.384Z,11.65
2019-01-18T21:20:22.143Z,10.93
2019-01-18T21:22:38.446Z,10.72
2019-01-18T21:24:36.457Z,10.55
2019-01-18T21:27:04.564Z,11.50
2019-01-18T21:29:37.726Z,10.65
2019-01-18T21:32:30.976Z,10.72
2019-01-18T21:34:52.013Z,11.55
2019-01-18T21:37:17.656Z,12.37
2019-01-18T21:40:13.186Z,11.83
2019-01-18T21:42:27.952Z,11.85
2019-01-18T21:44:55.129Z,11.22
2019-01-18T21:47:05.472Z,12.00
2019-01-18T21:49:17.776Z,10.45
2019-01-18T21:51:56.225Z,12.73
2019-01-18T21:54:03.883Z,14.68
2019-01-18T21:56:14.721Z,12.85
2019-01-18T21:58:18.440Z,14.40
2019-01-18T22:00:28.435Z,14.25
2019-01-18T22:03:06.662Z,14.53
2019-01-18T22:05:13.110Z,14.90
2019-01-18T22:07:46.283Z,13.88
2019-01-18T22:10:04.677Z,14.33
2019-01-18T22:12:19.375Z,13.45
2019-01-18T22:14:28.573Z,13.98
2019-01-18T22:17:00.154Z,13.22
2019-01-18T22:19:26.708Z,13.15
2019-01-18T22:21:52.832Z,13.60
2019-01-18T22:23:40.416Z,13.38
2019-01-18T22:25:58.637Z,13.48
2019-01-18T22:28:01.181Z,12.40
2019-01-18T22:30:36.391Z,12.85
2019-01-18T22:33:16.891Z,11.70
2019-01-18T22:35:48.068Z,12.35
2019-01-18T22:37:55.943Z,12.23
2019-01-18T22:40:28.007Z,12.10
2019-01-18T22:42:41.117Z,10.75
2019-01-18T22:44:54.871Z,10.93
2019-01-18T22:47:27.781Z,10.00
2019-01-18T22:49:47.240Z,10.72